createdAt,value
2017-10-20T00:01:18.627Z,100066.00
2017-10-20T00:03:46.237Z,100075.50
2017-10-20T00:06:13.895Z,100068.03
2017-10-20T00:08:41.502Z,100069.17
2017-10-20T00:11:09.183Z,100062.78
2017-10-20T00:13:36.888Z,100066.02
2017-10-20T00:16:04.502Z,100057.70
2017-10-20T00:18:32.185Z,100062.33
2017-10-20T00:20:59.838Z,100064.11
2017-10-20T00:23:27.504Z,100060.27
2017-10-20T00:25:55.116Z,100063.64
2017-10-20T00:28:22.840Z,100062.97
2017-10-20T00:30:50.459Z,100066.25
2017-10-20T00:33:18.129Z,100061.04
2017-10-20T00:35:45.790Z,100061.30
2017-10-20T00:38:13.399Z,100064.86
2017-10-20T00:40:41.059Z,100067.30
2017-10-20T00:43:08.719Z,100065.88
2017-10-20T00:45:36.327Z,100063.19
2017-10-20T00:48:04.004Z,100063.05
2017-10-20T00:50:31.712Z,100061.55
2017-10-20T00:52:59.318Z,100070.54
2017-10-20T00:55:26.943Z,100058.77
2017-10-20T00:57:54.660Z,100067.63
2017-10-20T01:00:22.327Z,100068.98
2017-10-20T01:02:49.931Z,100068.06
2017-10-20T01:05:17.647Z,100069.35
2017-10-20T01:07:45.316Z,100070.95
2017-10-20T01:10:12.923Z,100074.67
2017-10-20T01:12:40.596Z,100073.58
2017-10-20T01:15:08.276Z,100075.18
2017-10-20T01:17:35.883Z,100073.92
2017-10-20T01:20:03.655Z,100071.23
2017-10-20T01:22:31.302Z,100073.92
2017-10-20T01:24:58.955Z,100072.91
2017-10-20T01:27:26.637Z,100074.84
2017-10-20T01:29:54.276Z,100081.90
2017-10-20T01:32:21.916Z,100088.20
2017-10-20T01:34:49.596Z,100087.20
2017-10-20T01:37:17.228Z,100085.73
2017-10-20T01:39:44.851Z,100083.91
2017-10-20T01:42:12.563Z,100077.20
2017-10-20T01:44:40.203Z,100080.72
2017-10-20T01:47:07.835Z,100079.62
2017-10-20T01:49:35.564Z,100089.41
2017-10-20T01:52:03.212Z,100082.77
2017-10-20T01:54:30.889Z,100081.42
2017-10-20T01:56:58.563Z,100084.70
2017-10-20T01:59:26.243Z,100087.47
2017-10-20T02:01:53.883Z,100089.15
2017-10-20T02:04:21.603Z,100088.98
2017-10-20T02:06:49.264Z,100092.09
2017-10-20T02:09:16.903Z,100092.52
2017-10-20T02:11:44.612Z,100088.64
2017-10-20T02:14:12.219Z,100088.98
2017-10-20T02:16:40.555Z,100085.95
2017-10-20T02:19:08.300Z,100088.09
2017-10-20T02:21:35.911Z,100088.17
2017-10-20T02:24:03.584Z,100093.20
2017-10-20T02:26:31.307Z,100090.02
2017-10-20T02:28:58.987Z,100092.63
2017-10-20T02:31:26.664Z,100089.34
2017-10-20T02:33:54.420Z,100085.48
2017-10-20T02:36:22.024Z,100092.45
2017-10-20T02:38:49.636Z,100086.38
2017-10-20T02:41:17.288Z,100091.34
2017-10-20T02:43:44.900Z,100086.55
2017-10-20T02:46:12.514Z,100091.92
2017-10-20T02:48:40.174Z,100090.58
2017-10-20T02:51:07.803Z,100090.77
2017-10-20T02:53:35.443Z,100090.35
2017-10-20T02:56:03.179Z,100087.16
2017-10-20T02:58:30.791Z,100085.56
2017-10-20T03:00:58.415Z,100091.27
2017-10-20T03:03:26.066Z,100098.49
2017-10-20T03:05:53.730Z,100101.43
2017-10-20T03:08:21.347Z,100096.00
2017-10-20T03:10:49.102Z,100100.44
2017-10-20T03:13:16.718Z,100103.30
2017-10-20T03:15:44.327Z,100103.28
2017-10-20T03:18:12.040Z,100107.66
2017-10-20T03:20:39.643Z,100109.09
2017-10-20T03:23:07.251Z,100104.97
2017-10-20T03:25:34.955Z,100110.75
2017-10-20T03:28:02.559Z,100105.36
2017-10-20T03:30:30.167Z,100108.58
2017-10-20T03:32:57.890Z,100107.73
2017-10-20T03:35:25.495Z,100108.58
2017-10-20T03:37:53.155Z,100102.27
2017-10-20T03:40:20.799Z,100102.37
2017-10-20T03:42:48.468Z,100107.83
2017-10-20T03:45:16.135Z,100102.63
2017-10-20T03:47:43.779Z,100096.98
2017-10-20T03:50:11.386Z,100099.41
2017-10-20T03:52:38.983Z,100098.42
2017-10-20T03:55:06.632Z,100101.69
2017-10-20T03:57:34.229Z,100099.44
2017-10-20T04:00:01.843Z,100096.39
2017-10-20T04:02:29.548Z,100104.61
2017-10-20T04:04:57.198Z,100101.02
2017-10-20T04:07:24.850Z,100104.36
2017-10-20T04:09:52.496Z,100105.95
2017-10-20T04:12:20.160Z,100112.94
2017-10-20T04:14:47.771Z,100104.28
2017-10-20T04:17:15.527Z,100103.78
2017-10-20T04:19:43.199Z,100104.02
2017-10-20T04:22:10.796Z,100102.42
2017-10-20T04:24:38.539Z,100095.29
2017-10-20T04:27:06.199Z,100095.63
2017-10-20T04:29:33.916Z,100096.12
2017-10-20T04:32:01.683Z,100099.31
2017-10-20T04:34:29.332Z,100094.53
2017-10-20T04:36:56.999Z,100093.44
2017-10-20T04:39:24.652Z,100089.86
2017-10-20T04:41:52.259Z,100099.82
2017-10-20T04:44:19.855Z,100101.36
2017-10-20T04:46:47.587Z,100096.72
2017-10-20T04:49:15.247Z,100103.19
2017-10-20T04:51:42.847Z,100103.11
2017-10-20T04:54:10.503Z,100113.10
2017-10-20T04:56:38.359Z,100117.11
2017-10-20T04:59:06.027Z,100117.23
2017-10-20T05:01:33.781Z,100119.98
2017-10-20T05:04:01.440Z,100113.77
2017-10-20T05:06:29.107Z,100115.36
2017-10-20T05:08:56.766Z,100116.62
2017-10-20T05:11:24.427Z,100119.17
2017-10-20T05:13:52.027Z,100120.66
2017-10-20T05:16:19.681Z,100124.72
2017-10-20T05:18:47.287Z,100123.36
2017-10-20T05:21:14.946Z,100122.08
2017-10-20T05:23:43.031Z,100119.05
2017-10-20T05:26:10.694Z,100124.76
2017-10-20T05:28:38.311Z,100129.95
2017-10-20T05:31:06.068Z,100134.61
2017-10-20T05:33:33.726Z,100135.82
2017-10-20T05:36:01.394Z,100145.74
2017-10-20T05:38:29.154Z,100143.89
2017-10-20T05:40:56.759Z,100144.91
2017-10-20T05:43:24.424Z,100145.54
2017-10-20T05:45:52.127Z,100142.34
2017-10-20T05:48:19.732Z,100148.07
2017-10-20T05:50:47.335Z,100156.70
2017-10-20T05:53:15.043Z,100157.00
2017-10-20T05:55:42.639Z,100154.73
2017-10-20T06:25:24.854Z,100179.16
2017-10-20T06:27:52.511Z,100175.90
2017-10-20T06:30:20.120Z,100184.24
2017-10-20T06:32:47.775Z,100184.03
2017-10-20T06:35:15.442Z,100185.45
2017-10-20T06:37:43.043Z,100182.98
2017-10-20T06:40:10.784Z,100181.84
2017-10-20T06:42:38.383Z,100185.81
2017-10-20T06:45:06.053Z,100181.06
2017-10-20T06:47:33.819Z,100183.83
2017-10-20T06:50:01.444Z,100189.17
2017-10-20T06:52:29.106Z,100182.28
2017-10-20T06:54:56.828Z,100180.56
2017-10-20T06:57:24.509Z,100187.77
2017-10-20T06:59:52.167Z,100182.17
2017-10-20T07:02:19.827Z,100186.16
2017-10-20T07:04:47.430Z,100186.19
2017-10-20T07:07:15.032Z,100182.21
2017-10-20T07:09:42.710Z,100184.67
2017-10-20T07:12:10.339Z,100182.73
2017-10-20T07:14:37.943Z,100190.05
2017-10-20T07:17:05.667Z,100179.84
2017-10-20T07:19:36.879Z,100177.76
2017-10-20T07:22:04.556Z,100176.41
2017-10-20T07:24:32.271Z,100176.93
2017-10-20T07:26:59.947Z,100181.57
2017-10-20T07:29:27.628Z,100188.67
2017-10-20T07:31:55.339Z,100185.92
2017-10-20T07:34:22.943Z,100182.84
2017-10-20T07:36:50.548Z,100180.73
2017-10-20T07:39:18.218Z,100180.67
2017-10-20T07:41:45.892Z,100186.73
2017-10-20T07:44:13.490Z,100180.52
2017-10-20T07:46:43.154Z,100183.09
2017-10-20T07:49:10.755Z,100178.33
2017-10-20T07:51:38.355Z,100183.83
2017-10-20T07:54:06.062Z,100174.88
2017-10-20T07:56:33.680Z,100177.02
2017-10-20T07:59:01.279Z,100173.98
2017-10-20T08:01:28.935Z,100164.62
2017-10-20T08:03:56.526Z,100174.56
2017-10-20T08:06:24.184Z,100169.78
2017-10-20T08:08:51.919Z,100174.89
2017-10-20T08:11:19.516Z,100180.84
2017-10-20T08:13:47.111Z,100171.75
2017-10-20T08:16:14.763Z,100174.04
2017-10-20T08:34:37.099Z,100171.93
2017-10-20T08:37:04.700Z,100167.48
2017-10-20T08:39:32.398Z,100173.13
2017-10-20T08:42:00.110Z,100170.45
2017-10-20T08:44:27.711Z,100170.29
2017-10-20T08:46:55.423Z,100170.72
2017-10-20T08:49:23.187Z,100168.47
2017-10-20T08:51:50.851Z,100168.92
2017-10-20T08:54:18.516Z,100169.61
2017-10-20T08:56:46.232Z,100166.59
2017-10-20T08:59:13.892Z,100168.03
2017-10-20T09:01:41.629Z,100166.52
2017-10-20T09:04:09.352Z,100167.19
2017-10-20T09:06:37.011Z,100166.11
2017-10-20T09:09:04.680Z,100161.52
2017-10-20T09:11:32.405Z,100162.89
2017-10-20T09:14:00.069Z,100166.46
2017-10-20T09:16:27.731Z,100159.33
2017-10-20T09:18:55.502Z,100155.45
2017-10-20T09:21:23.160Z,100156.14
2017-10-20T09:23:50.835Z,100158.61
2017-10-20T09:26:18.555Z,100158.71
2017-10-20T09:28:46.208Z,100152.27
2017-10-20T09:31:13.868Z,100157.92
2017-10-20T09:33:41.587Z,100155.26
2017-10-20T09:36:09.277Z,100153.50
2017-10-20T09:38:36.947Z,100151.51
2017-10-20T09:41:04.653Z,100152.69
2017-10-20T09:43:32.320Z,100149.04
2017-10-20T09:45:59.980Z,100147.17
2017-10-20T09:48:27.691Z,100146.75
2017-10-20T09:50:55.359Z,100143.08
2017-10-20T09:53:23.016Z,100135.08
2017-10-20T09:55:50.727Z,100133.02
2017-10-20T09:58:18.387Z,100138.52
2017-10-20T10:00:46.050Z,100134.65
2017-10-20T10:03:13.851Z,100136.09
2017-10-20T10:05:41.512Z,100128.06
2017-10-20T10:08:09.176Z,100124.29
2017-10-20T10:10:36.939Z,100130.23
2017-10-20T10:13:04.651Z,100122.77
2017-10-20T10:15:32.315Z,100119.91
2017-10-20T10:18:00.025Z,100118.59
2017-10-20T10:20:27.696Z,100112.85
2017-10-20T10:22:55.411Z,100118.74
2017-10-20T10:25:23.167Z,100118.25
2017-10-20T10:27:50.827Z,100109.78
2017-10-20T10:30:18.547Z,100108.03
2017-10-20T10:32:46.296Z,100104.86
2017-10-20T10:35:13.967Z,100105.17
2017-10-20T10:37:41.655Z,100100.85
2017-10-20T10:40:09.359Z,100102.52
2017-10-20T10:42:37.019Z,100094.90
2017-10-20T10:45:04.695Z,100091.22
2017-10-20T10:47:32.395Z,100095.33
2017-10-20T10:50:00.059Z,100088.35
2017-10-20T10:52:27.725Z,100087.43
2017-10-20T10:54:55.439Z,100079.58
2017-10-20T10:57:22.973Z,100084.72
2017-10-20T10:59:50.510Z,100078.94
2017-10-20T11:02:18.086Z,100080.67
2017-10-20T11:04:45.629Z,100071.61
2017-10-20T11:07:25.170Z,100072.05
2017-10-20T11:13:00.895Z,100071.47
2017-10-20T11:15:28.477Z,100067.46
2017-10-20T11:17:56.009Z,100071.84
2017-10-20T11:20:23.594Z,100065.64
2017-10-20T11:22:51.128Z,100058.09
2017-10-20T11:25:18.661Z,100063.30
2017-10-20T11:27:46.238Z,100051.41
2017-10-20T11:30:13.778Z,100053.48
2017-10-20T11:32:41.313Z,100057.95
2017-10-20T11:35:08.898Z,100049.63
2017-10-20T11:37:36.455Z,100048.83
2017-10-20T11:40:03.993Z,100052.45
2017-10-20T11:42:31.581Z,100048.37
2017-10-20T11:44:59.137Z,100045.40
2017-10-20T11:47:26.665Z,100043.77
2017-10-20T11:49:54.241Z,100039.77
2017-10-20T11:52:21.793Z,100042.70
2017-10-20T11:54:49.349Z,100039.52
2017-10-20T11:57:16.933Z,100036.48
2017-10-20T11:59:44.478Z,100039.02
2017-10-20T12:02:12.021Z,100032.39
2017-10-20T12:04:39.613Z,100036.05
2017-10-20T12:07:07.154Z,100034.75
2017-10-20T12:09:34.697Z,100029.17
2017-10-20T12:12:02.375Z,100035.22
2017-10-20T12:14:29.918Z,100025.70
2017-10-20T12:16:57.514Z,100029.44
2017-10-20T12:19:25.087Z,100021.53
2017-10-20T12:21:52.621Z,100017.23
2017-10-20T12:24:20.168Z,100024.84
2017-10-20T12:26:47.774Z,100020.61
2017-10-20T12:29:15.309Z,100020.69
2017-10-20T12:31:42.836Z,100019.89
2017-10-20T12:34:10.558Z,100016.32
2017-10-20T12:36:38.085Z,100012.71
2017-10-20T12:39:05.617Z,100010.13
2017-10-20T12:41:33.195Z,100010.38
2017-10-20T12:44:00.725Z,100012.44
2017-10-20T12:46:28.261Z,100004.72
2017-10-20T12:48:55.829Z,100013.27
2017-10-20T12:51:23.361Z,100005.14
2017-10-20T12:53:50.946Z,100004.73
2017-10-20T12:56:19.537Z,100002.49
2017-10-20T12:58:47.065Z,100004.44
2017-10-20T13:01:14.661Z,100001.00
2017-10-20T13:03:42.245Z,99999.75
2017-10-20T13:06:09.798Z,99997.52
2017-10-20T13:08:37.338Z,100003.48
2017-10-20T13:11:05.014Z,100006.34
2017-10-20T13:13:32.642Z,99997.78
2017-10-20T13:16:00.182Z,100001.36
2017-10-20T13:18:27.762Z,100002.47
2017-10-20T13:20:55.301Z,100002.60
2017-10-20T13:23:22.974Z,100000.55
2017-10-20T13:25:50.542Z,100000.53
2017-10-20T13:28:18.081Z,99998.61
2017-10-20T13:30:45.630Z,100004.53
2017-10-20T13:33:13.212Z,99996.26
2017-10-20T13:35:40.738Z,99991.41
2017-10-20T13:38:08.284Z,99989.75
2017-10-20T13:40:35.862Z,99990.31
2017-10-20T13:43:03.413Z,99987.16
2017-10-20T13:45:30.950Z,99988.34
2017-10-20T13:47:58.526Z,99984.77
2017-10-20T13:50:26.066Z,99990.94
2017-10-20T13:52:53.612Z,99990.25
2017-10-20T13:55:21.193Z,99977.42
2017-10-20T13:57:48.734Z,99982.89
2017-10-20T14:00:16.286Z,99978.78
2017-10-20T14:02:43.918Z,99977.59
2017-10-20T14:05:11.483Z,99980.49
2017-10-20T14:07:39.041Z,99981.44
2017-10-20T14:10:06.610Z,99981.70
2017-10-20T14:12:34.146Z,99981.50
2017-10-20T14:15:01.691Z,99983.52
2017-10-20T14:17:29.266Z,99986.25
2017-10-20T14:19:56.830Z,99990.31
2017-10-20T14:22:24.379Z,99987.37
2017-10-20T14:24:51.978Z,99989.42
2017-10-20T14:27:19.536Z,99989.19
2017-10-20T14:29:47.114Z,99994.63
2017-10-20T14:32:14.726Z,99994.98
2017-10-20T14:34:42.298Z,99991.03
2017-10-20T14:37:09.851Z,99992.92
2017-10-20T14:39:37.470Z,99995.50
2017-10-20T14:42:05.007Z,99990.78
2017-10-20T14:44:32.550Z,99994.08
2017-10-20T14:47:00.150Z,99992.34
2017-10-20T14:49:27.706Z,99994.16
2017-10-20T14:51:55.246Z,99989.51
2017-10-20T14:54:22.854Z,99990.59
2017-10-20T14:56:50.398Z,99997.79
2017-10-20T14:59:17.936Z,99995.81
2017-10-20T15:01:45.522Z,99996.60
2017-10-20T15:04:13.127Z,99995.63
2017-10-20T15:06:40.679Z,100003.41
2017-10-20T15:09:08.270Z,99994.01
2017-10-20T15:11:35.934Z,100001.08
2017-10-20T15:14:03.502Z,100006.77
2017-10-20T15:16:31.075Z,100007.10
2017-10-20T15:18:58.635Z,100010.61
2017-10-20T15:21:26.186Z,100014.52
2017-10-20T15:23:54.658Z,100016.50
2017-10-20T15:26:22.271Z,100016.19
2017-10-20T15:28:49.823Z,100016.84
2017-10-20T15:31:17.401Z,100026.98
2017-10-20T15:33:44.946Z,100019.87
2017-10-20T15:36:12.500Z,100023.36
2017-10-20T15:38:40.087Z,100027.41
2017-10-20T15:41:07.667Z,100033.19
2017-10-20T15:43:35.250Z,100027.59
2017-10-20T15:46:02.834Z,100035.24
2017-10-20T15:48:30.388Z,100029.83
2017-10-20T15:50:57.934Z,100035.15
2017-10-20T15:53:25.514Z,100036.95
2017-10-20T15:55:53.086Z,100039.56
2017-10-20T15:58:20.630Z,100038.88
2017-10-20T16:00:48.210Z,100048.25
2017-10-20T16:03:15.749Z,100046.70
2017-10-20T16:05:43.295Z,100051.61
2017-10-20T16:08:11.110Z,100054.44
2017-10-20T16:10:38.683Z,100048.87
2017-10-20T16:13:06.225Z,100055.00
2017-10-20T16:15:33.802Z,100059.97
2017-10-20T16:18:01.359Z,100068.14
2017-10-20T16:20:28.958Z,100060.32
2017-10-20T16:22:56.624Z,100069.16
2017-10-20T16:25:24.230Z,100065.76
2017-10-20T16:27:51.845Z,100068.94
2017-10-20T16:30:19.499Z,100072.19
2017-10-20T16:32:47.186Z,100070.08
2017-10-20T16:35:14.799Z,100067.41
2017-10-20T16:37:42.475Z,100073.08
2017-10-20T16:40:10.139Z,100078.33
2017-10-20T16:42:37.811Z,100070.21
2017-10-20T16:45:05.470Z,100068.47
2017-10-20T16:47:33.076Z,100074.40
2017-10-20T16:50:00.744Z,100069.93
2017-10-20T16:52:28.508Z,100078.41
2017-10-20T16:54:56.118Z,100080.17
2017-10-20T16:57:23.726Z,100072.05
2017-10-20T16:59:51.534Z,100075.80
2017-10-20T17:02:19.156Z,100079.15
2017-10-20T17:04:47.158Z,100076.01
2017-10-20T17:07:14.889Z,100083.75
2017-10-20T17:09:42.491Z,100082.89
2017-10-20T17:12:10.167Z,100082.69
2017-10-20T17:14:37.889Z,100081.96
2017-10-20T17:17:05.513Z,100084.02
2017-10-20T17:19:33.276Z,100085.92
2017-10-20T17:22:00.931Z,100082.05
2017-10-20T17:24:28.599Z,100082.16
2017-10-20T17:26:56.208Z,100083.81
2017-10-20T17:29:23.924Z,100082.14
2017-10-20T17:31:51.567Z,100077.44
2017-10-20T17:34:19.176Z,100080.69
2017-10-20T17:36:46.827Z,100084.83
2017-10-20T17:39:14.436Z,100084.95
2017-10-20T17:41:42.059Z,100086.28
2017-10-20T17:44:09.724Z,100083.05
2017-10-20T17:46:37.388Z,100086.91
2017-10-20T17:49:05.042Z,100080.23
2017-10-20T17:51:32.704Z,100075.33
2017-10-20T17:54:01.452Z,100085.66
2017-10-20T17:56:29.123Z,100082.95
2017-10-20T17:58:56.825Z,100085.27
2017-10-20T18:01:24.488Z,100082.23
2017-10-20T18:03:52.095Z,100076.52
2017-10-20T18:06:19.775Z,100087.36
2017-10-20T18:08:47.439Z,100087.26
2017-10-20T18:11:15.059Z,100090.50
2017-10-20T18:13:42.756Z,100090.39
2017-10-20T18:16:10.363Z,100087.07
2017-10-20T18:18:38.028Z,100087.28
2017-10-20T18:21:05.740Z,100086.34
2017-10-20T18:23:33.357Z,100088.02
2017-10-20T18:26:00.994Z,100089.47
2017-10-20T18:28:28.664Z,100088.95
2017-10-20T18:30:56.267Z,100091.98
2017-10-20T18:33:23.879Z,100090.19
2017-10-20T18:35:51.592Z,100085.40
2017-10-20T18:38:19.268Z,100092.91
2017-10-20T18:40:46.951Z,100094.18
2017-10-20T18:43:14.638Z,100090.92
2017-10-20T18:45:42.303Z,100089.67
2017-10-20T18:48:09.918Z,100090.63
2017-10-20T18:50:37.591Z,100096.77
2017-10-20T18:53:05.208Z,100097.72
2017-10-20T18:55:32.876Z,100098.75
2017-10-20T18:58:00.528Z,100102.00
2017-10-20T19:00:28.143Z,100103.02
2017-10-20T19:02:55.812Z,100103.33
2017-10-20T19:05:23.482Z,100106.25
2017-10-20T19:07:51.095Z,100101.42
2017-10-20T19:10:18.767Z,100110.09
2017-10-20T19:12:46.427Z,100110.00
2017-10-20T19:15:14.035Z,100110.11
2017-10-20T19:17:41.711Z,100104.28
2017-10-20T19:20:09.399Z,100106.27
2017-10-20T19:22:37.012Z,100106.08
2017-10-20T19:25:04.628Z,100106.16
2017-10-20T19:27:32.292Z,100110.97
2017-10-20T19:29:59.923Z,100114.22
2017-10-20T19:32:27.536Z,100109.59
2017-10-20T19:34:55.255Z,100116.19
2017-10-20T19:37:22.944Z,100110.75
2017-10-20T19:39:50.569Z,100111.48
2017-10-20T19:42:18.233Z,100116.38
2017-10-20T19:44:45.912Z,100112.63
2017-10-20T19:47:13.540Z,100110.97
2017-10-20T19:49:41.215Z,100114.52
2017-10-20T19:52:08.823Z,100117.42
2017-10-20T19:54:36.498Z,100111.47
2017-10-20T19:57:04.163Z,100122.84
2017-10-20T19:59:31.790Z,100117.70
2017-10-20T20:01:59.403Z,100126.67
2017-10-20T20:04:27.135Z,100119.07
2017-10-20T20:06:54.800Z,100124.86
2017-10-20T20:09:22.523Z,100116.64
2017-10-20T20:11:50.243Z,100117.85
2017-10-20T20:14:17.852Z,100128.86
2017-10-20T20:16:45.462Z,100121.42
2017-10-20T20:19:13.175Z,100124.95
2017-10-20T20:21:40.834Z,100115.85
2017-10-20T20:24:08.556Z,100119.75
2017-10-20T20:26:36.272Z,100118.72
2017-10-20T20:29:03.927Z,100125.55
2017-10-20T20:31:34.059Z,100122.80
2017-10-20T20:34:03.754Z,100125.89
2017-10-20T20:36:31.415Z,100131.29
2017-10-20T20:38:59.066Z,100126.67
2017-10-20T20:41:26.719Z,100125.75
2017-10-20T20:43:54.322Z,100127.02
2017-10-20T20:46:22.061Z,100127.84
2017-10-20T20:48:49.719Z,100134.74
2017-10-20T20:51:17.379Z,100125.32
2017-10-20T20:53:45.052Z,100132.13
2017-10-20T20:56:12.704Z,100134.34
2017-10-20T20:58:40.308Z,100128.31
2017-10-20T21:01:07.924Z,100129.65
2017-10-20T21:03:35.668Z,100132.81
2017-10-20T21:06:03.287Z,100129.53
2017-10-20T21:08:31.017Z,100126.36
2017-10-20T21:10:58.767Z,100130.41
2017-10-20T21:13:26.506Z,100130.25
2017-10-20T21:15:54.215Z,100130.06
2017-10-20T21:18:22.032Z,100129.05
2017-10-20T21:20:49.722Z,100134.04
2017-10-20T21:23:17.427Z,100129.59
2017-10-20T21:25:45.127Z,100130.20
2017-10-20T21:28:12.806Z,100125.91
2017-10-20T21:30:40.499Z,100125.66
2017-10-20T21:33:08.239Z,100121.30
2017-10-20T21:35:35.879Z,100126.44
2017-10-20T21:38:03.511Z,100127.88
2017-10-20T21:40:31.200Z,100121.91
2017-10-20T21:42:58.815Z,100123.42
2017-10-20T21:45:26.439Z,100121.08
2017-10-20T21:47:54.126Z,100122.37
2017-10-20T21:50:21.807Z,100118.53
2017-10-20T21:52:49.480Z,100126.51
2017-10-20T21:55:17.161Z,100125.25
2017-10-20T21:57:44.779Z,100123.36
2017-10-20T22:00:12.403Z,100122.81
2017-10-20T22:02:40.134Z,100126.08
2017-10-20T22:05:07.803Z,100122.19
2017-10-20T22:07:35.423Z,100123.80
2017-10-20T22:10:03.096Z,100127.10
2017-10-20T22:12:30.722Z,100120.27
2017-10-20T22:14:58.350Z,100125.59
2017-10-20T22:17:26.027Z,100119.13
2017-10-20T22:19:53.655Z,100119.03
2017-10-20T22:22:21.281Z,100130.39
2017-10-20T22:24:48.955Z,100129.14
2017-10-20T22:27:16.563Z,100130.33
2017-10-20T22:29:44.240Z,100133.19
2017-10-20T22:32:11.958Z,100136.22
2017-10-20T22:34:39.579Z,100134.54
2017-10-20T22:37:07.204Z,100134.54
2017-10-20T22:39:34.883Z,100133.09
2017-10-20T22:42:02.520Z,100134.42
2017-10-20T22:44:30.147Z,100140.16
2017-10-20T22:46:57.818Z,100137.94
2017-10-20T22:49:25.436Z,100136.34
2017-10-20T22:51:53.127Z,100139.64
2017-10-20T22:54:20.798Z,100133.64
2017-10-20T22:56:48.412Z,100143.48
2017-10-20T22:59:16.018Z,100144.05
2017-10-20T23:01:43.740Z,100147.34
2017-10-20T23:04:11.363Z,100140.31
2017-10-20T23:06:39.048Z,100144.88
2017-10-20T23:09:06.780Z,100143.98
2017-10-20T23:11:34.403Z,100145.77
2017-10-20T23:14:02.034Z,100135.50
2017-10-20T23:16:29.743Z,100142.22
2017-10-20T23:18:57.363Z,100138.19
2017-10-20T23:21:24.990Z,100142.23
2017-10-20T23:23:52.699Z,100143.74
2017-10-20T23:26:20.315Z,100135.41
2017-10-20T23:28:47.941Z,100145.36
2017-10-20T23:31:15.684Z,100145.31
2017-10-20T23:33:43.306Z,100137.53
2017-10-20T23:36:10.951Z,100140.15
2017-10-20T23:38:38.680Z,100138.22
2017-10-20T23:41:06.370Z,100133.97
2017-10-20T23:43:34.010Z,100129.52
2017-10-20T23:46:01.731Z,100134.98
2017-10-20T23:48:29.356Z,100132.22
2017-10-20T23:50:57.047Z,100131.97
2017-10-20T23:53:24.724Z,100131.08
2017-10-20T23:55:52.342Z,100125.28
2017-10-20T23:58:19.952Z,100123.18
